createdAt,value
2019-04-05T14:02:36.931Z,10.32
2019-04-05T14:05:08.233Z,11.05
2019-04-05T14:07:38.586Z,10.55
2019-04-05T14:10:12.355Z,10.58
2019-04-05T14:12:41.808Z,11.70
2019-04-05T14:15:12.192Z,11.25
2019-04-05T14:17:44.705Z,12.88
2019-04-05T14:20:18.568Z,10.63
2019-04-05T14:22:46.564Z,9.75
2019-04-05T14:25:17.426Z,11.30
2019-04-05T14:27:47.522Z,11.33
2019-04-05T14:30:17.860Z,12.43
2019-04-05T14:32:50.583Z,11.30
2019-04-05T14:35:19.018Z,10.82
2019-04-05T14:37:49.768Z,10.98
2019-04-05T14:40:20.012Z,10.15
2019-04-05T14:42:50.754Z,10.90
2019-04-05T14:45:20.492Z,9.58
2019-04-05T14:47:50.997Z,10.15
2019-04-05T14:50:22.704Z,9.90
2019-04-05T14:52:52.303Z,10.05
2019-04-05T14:55:22.716Z,9.95
2019-04-05T14:57:52.760Z,9.23
2019-04-05T15:00:23.644Z,10.05
2019-04-05T15:02:54.001Z,10.82
2019-04-05T15:05:23.708Z,10.60
2019-04-05T15:07:54.978Z,10.77
2019-04-05T15:10:26.827Z,9.93
2019-04-05T15:12:56.950Z,11.95
2019-04-05T15:15:26.273Z,11.55
2019-04-05T15:17:56.391Z,12.33
2019-04-05T15:20:26.383Z,13.65
2019-04-05T15:22:56.396Z,10.95
2019-04-05T15:25:27.040Z,10.43
2019-04-05T15:27:57.344Z,10.68
2019-04-05T15:30:27.342Z,10.50
2019-04-05T15:32:59.058Z,10.30
2019-04-05T15:35:29.144Z,10.15
2019-04-05T15:38:02.112Z,10.55
2019-04-05T15:40:31.674Z,10.43
2019-04-05T15:43:01.691Z,9.88
2019-04-05T15:45:31.702Z,10.48
2019-04-05T15:48:01.887Z,10.63
2019-04-05T15:50:33.345Z,10.10
2019-04-05T15:53:03.472Z,10.25
2019-04-05T15:55:34.351Z,9.98
2019-04-05T15:58:04.654Z,11.30
2019-04-05T16:00:44.772Z,11.10
2019-04-05T16:03:15.516Z,11.20
2019-04-05T16:05:45.950Z,10.45
2019-04-05T16:08:18.697Z,10.63
2019-04-05T16:10:48.768Z,10.55
2019-04-05T16:13:18.925Z,11.48
2019-04-05T16:15:49.447Z,10.60
2019-04-05T16:18:19.888Z,11.25
2019-04-05T16:20:50.246Z,11.33
2019-04-05T16:23:20.368Z,10.80
2019-04-05T16:25:50.768Z,11.95
2019-04-05T16:28:21.569Z,11.15
2019-04-05T16:30:51.948Z,11.63
2019-04-05T16:33:21.881Z,11.85
2019-04-05T16:35:51.224Z,11.80
2019-04-05T16:38:22.095Z,12.88
2019-04-05T16:40:51.611Z,11.05
2019-04-05T16:43:21.621Z,12.00
2019-04-05T16:45:51.725Z,10.38
2019-04-05T16:48:22.449Z,9.63
2019-04-05T16:50:52.913Z,10.25
2019-04-05T16:53:23.230Z,10.53
2019-04-05T16:55:52.969Z,10.80
2019-04-05T16:58:23.354Z,11.18
2019-04-05T17:00:53.768Z,10.90
2019-04-05T17:03:24.044Z,11.28
2019-04-05T17:05:54.510Z,10.65
2019-04-05T17:08:24.919Z,14.50
2019-04-05T17:10:54.681Z,14.87
2019-04-05T17:13:24.687Z,20.62
2019-04-05T17:15:55.233Z,79.90
2019-04-05T17:18:25.397Z,24.52
2019-04-05T17:20:55.579Z,38.00
2019-04-05T17:23:24.911Z,33.10
2019-04-05T17:25:54.560Z,14.25
2019-04-05T17:28:24.631Z,14.53
2019-04-05T17:30:55.029Z,12.60
2019-04-05T17:33:25.321Z,12.40
2019-04-05T17:35:55.464Z,12.95
2019-04-05T17:38:25.747Z,17.35
2019-04-05T17:40:55.777Z,16.95
2019-04-05T17:43:26.134Z,13.72
2019-04-05T17:45:56.571Z,13.22
2019-04-05T17:48:26.932Z,17.25
2019-04-05T17:50:56.660Z,15.78
2019-04-05T17:53:27.109Z,13.18
2019-04-05T17:55:59.028Z,14.10
2019-04-05T17:58:29.882Z,14.40
2019-04-05T18:00:59.921Z,13.43
2019-04-05T18:03:30.344Z,16.82
2019-04-05T18:06:00.370Z,47.48
2019-04-05T18:08:30.814Z,75.60
2019-04-05T18:11:01.268Z,57.38
2019-04-05T18:13:31.927Z,25.12
2019-04-05T18:16:02.297Z,17.37
2019-04-05T18:18:32.301Z,13.68
2019-04-05T18:21:01.957Z,13.48
2019-04-05T18:23:32.449Z,13.10
2019-04-05T18:26:01.765Z,12.78
2019-04-05T18:28:32.118Z,12.70
2019-04-05T18:31:02.816Z,11.28
2019-04-05T18:33:32.904Z,12.35
2019-04-05T18:36:02.937Z,11.15
2019-04-05T18:38:34.438Z,12.10
2019-04-05T18:41:04.814Z,12.65
2019-04-05T18:43:35.309Z,10.90
2019-04-05T18:46:05.793Z,10.70
2019-04-05T18:48:35.878Z,10.82
2019-04-05T18:51:06.272Z,11.68
2019-04-05T18:53:38.208Z,10.55
2019-04-05T18:56:08.874Z,10.60
2019-04-05T18:58:38.921Z,10.13
2019-04-05T19:01:09.360Z,10.45
2019-04-05T19:03:40.096Z,11.05
2019-04-05T19:06:10.525Z,10.53
2019-04-05T19:08:40.954Z,9.90
2019-04-05T19:11:11.047Z,10.75
2019-04-05T19:13:41.392Z,11.25
2019-04-05T19:16:11.089Z,11.00
2019-04-05T19:18:40.826Z,10.50
2019-04-05T19:21:10.985Z,11.38
2019-04-05T19:23:50.718Z,10.58
2019-04-05T19:26:13.086Z,10.00
2019-04-05T19:28:43.839Z,10.38
2019-04-05T19:48:57.599Z,15.72
2019-04-05T19:51:28.337Z,31.70
2019-04-05T19:54:01.281Z,41.02
2019-04-05T19:56:30.562Z,42.15
2019-04-05T19:59:00.489Z,25.72
